Time;durP1;ratioP1;P1;durP2;ratioP2;P2;SDS_P1;SDS_P2;PMS_P1;PMS_P2;Temp;Humidity;BMP_temperature;BMP_pressure;BME280_temperature;BME280_humidity;BME280_pressure;Samples;Min_cycle;Max_cycle;Signal;HPM_P1;HPM_P2
2023/07/15 00:01:21;;;;;;;;;;;;;;;25.14;69.20;97176.55;625282;227;67232;-62
2023/07/15 00:03:50;;;;;;;;;;;;;;;25.13;70.32;97174.96;625282;227;67087;-62
2023/07/15 00:06:20;;;;;;;;;;;;;;;25.14;69.20;97176.55;625228;227;62966;-62
2023/07/15 00:08:48;;;;;;;;;;;;;;;25.14;69.08;97181.92;625268;227;64935;-62
2023/07/15 00:11:20;;;;;;;;;;;;;;;25.13;69.25;97177.66;625237;227;67008;-63
2023/07/15 00:13:48;;;;;;;;;;;;;;;25.13;70.26;97181.13;624393;226;65010;-62
2023/07/15 00:16:15;;;;;;;;;;;;;;;25.12;69.17;97181.41;623922;227;66974;-62
2023/07/15 00:18:43;;;;;;;;;;;;;;;25.12;69.25;97182.20;623802;227;67062;-64
2023/07/15 00:21:14;;;;;;;;;;;;;;;25.12;70.29;97170.66;623800;227;65214;-62
2023/07/15 00:23:42;;;;;;;;;;;;;;;25.12;70.82;97176.83;623695;227;67237;-62
2023/07/15 00:26:10;;;;;;;;;;;;;;;25.12;71.22;97167.97;623828;227;66905;-62
2023/07/15 00:28:38;;;;;;;;;;;;;;;25.10;69.65;97172.83;623899;227;65259;-63
2023/07/15 00:31:07;;;;;;;;;;;;;;;25.11;69.51;97174.45;623818;227;67879;-62
2023/07/15 00:33:36;;;;;;;;;;;;;;;25.11;69.47;97174.45;623794;226;64510;-62
2023/07/15 00:36:05;;;;;;;;;;;;;;;25.11;70.17;97175.23;623838;227;63625;-61
2023/07/15 00:38:33;;;;;;;;;;;;;;;25.10;69.72;97173.66;623868;227;64971;-61
2023/07/15 00:41:03;;;;;;;;;;;;;;;25.11;69.56;97186.00;623851;227;67504;-63
2023/07/15 00:43:49;;;;;;;;;;;;;;;25.11;69.59;97183.31;623859;227;63028;-62
2023/07/15 00:46:22;;;;;;;;;;;;;;;25.11;69.83;97185.20;623822;227;67230;-62
2023/07/15 00:48:52;;;;;;;;;;;;;;;25.11;71.05;97179.83;623850;227;64777;-62
2023/07/15 00:51:20;;;;;;;;;;;;;;;25.11;71.03;97190.59;623848;227;63809;-63
2023/07/15 00:53:48;;;;;;;;;;;;;;;25.10;70.43;97187.10;623854;227;64553;-63
2023/07/15 00:56:16;;;;;;;;;;;;;;;25.10;70.77;97183.59;623855;227;65037;-63
2023/07/15 00:58:43;;;;;;;;;;;;;;;25.10;70.41;97191.66;623897;227;65071;-63
2023/07/15 01:01:11;;;;;;;;;;;;;;;25.10;70.64;97191.66;623833;227;67185;-63
2023/07/15 01:03:44;;;;;;;;;;;;;;;25.10;71.28;97194.34;623889;227;66837;-65
2023/07/15 01:06:11;;;;;;;;;;;;;;;25.10;70.20;97194.34;623592;227;63718;-63
2023/07/15 01:08:39;;;;;;;;;;;;;;;25.10;70.28;97188.97;623820;227;65018;-63
2023/07/15 01:11:08;;;;;;;;;;;;;;;25.10;71.08;97197.86;623857;227;66068;-63
2023/07/15 01:13:35;;;;;;;;;;;;;;;25.10;71.41;97205.10;623834;227;64872;-61
2023/07/15 01:16:02;;;;;;;;;;;;;;;25.09;71.87;97198.93;623915;227;64830;-61
2023/07/15 01:18:30;;;;;;;;;;;;;;;25.09;70.29;97203.52;623893;227;64889;-61
2023/07/15 01:20:59;;;;;;;;;;;;;;;25.09;69.91;97192.76;623959;227;65191;-61
2023/07/15 01:23:29;;;;;;;;;;;;;;;25.09;71.01;97198.93;623940;227;67821;-61
2023/07/15 01:25:57;;;;;;;;;;;;;;;25.09;70.98;97195.45;623850;227;67019;-61
2023/07/15 01:28:25;;;;;;;;;;;;;;;25.10;71.58;97194.34;623960;227;62630;-61
2023/07/15 01:30:52;;;;;;;;;;;;;;;25.09;71.95;97198.14;623902;227;64462;-61
2023/07/15 01:33:20;;;;;;;;;;;;;;;25.10;73.34;97199.72;623933;227;65004;-61
2023/07/15 01:35:48;;;;;;;;;;;;;;;25.09;73.35;97204.31;623830;227;62703;-61
2023/07/15 01:38:16;;;;;;;;;;;;;;;25.10;74.94;97205.10;623965;227;67365;-61
2023/07/15 01:40:43;;;;;;;;;;;;;;;25.09;74.29;97203.52;623826;227;65045;-61
2023/07/15 01:43:11;;;;;;;;;;;;;;;25.09;73.54;97208.89;623932;227;63068;-61
2023/07/15 01:45:39;;;;;;;;;;;;;;;25.07;73.04;97201.11;623869;227;65853;-61
2023/07/15 01:48:08;;;;;;;;;;;;;;;25.08;73.78;97204.62;623902;227;67154;-61
2023/07/15 01:50:36;;;;;;;;;;;;;;;25.09;75.35;97208.89;623925;227;62942;-61
2023/07/15 01:53:08;;;;;;;;;;;;;;;25.08;75.30;97204.62;623841;227;67387;-61
2023/07/15 01:55:35;;;;;;;;;;;;;;;25.07;74.72;97205.69;623823;227;67069;-61
2023/07/15 01:58:02;;;;;;;;;;;;;;;25.05;74.63;97206.00;623842;227;64981;-61
2023/07/15 02:00:30;;;;;;;;;;;;;;;25.05;74.14;97207.89;623883;227;64809;-63
2023/07/15 02:02:57;;;;;;;;;;;;;;;25.04;73.79;97207.08;623934;227;67018;-63
2023/07/15 02:05:25;;;;;;;;;;;;;;;25.03;73.79;97202.80;623933;227;65010;-63
2023/07/15 02:07:55;;;;;;;;;;;;;;;25.02;74.02;97207.38;623930;227;44567;-63
2023/07/15 02:10:24;;;;;;;;;;;;;;;25.03;74.56;97206.28;623885;227;66989;-63
2023/07/15 02:12:51;;;;;;;;;;;;;;;25.03;74.49;97205.48;623880;227;62670;-63
2023/07/15 02:15:19;;;;;;;;;;;;;;;25.02;74.52;97207.38;623837;227;64850;-63
2023/07/15 02:17:46;;;;;;;;;;;;;;;25.02;74.62;97218.14;623912;227;64704;-63
2023/07/15 02:20:14;;;;;;;;;;;;;;;25.02;74.74;97206.59;623832;227;65944;-63
2023/07/15 02:22:42;;;;;;;;;;;;;;;25.02;75.29;97215.45;623843;227;67043;-63
2023/07/15 02:25:10;;;;;;;;;;;;;;;25.01;74.77;97216.52;623795;227;67833;-65
2023/07/15 02:27:38;;;;;;;;;;;;;;;25.01;74.33;97213.83;623846;227;65093;-63
2023/07/15 02:30:08;;;;;;;;;;;;;;;25.01;74.59;97213.83;623861;227;67086;-63
2023/07/15 02:32:38;;;;;;;;;;;;;;;25.01;74.87;97210.35;623819;227;66861;-63
2023/07/15 02:35:08;;;;;;;;;;;;;;;25.00;74.65;97206.08;623799;227;65028;-63
2023/07/15 02:37:36;;;;;;;;;;;;;;;25.01;75.34;97210.35;623818;227;65144;-63
2023/07/15 02:40:04;;;;;;;;;;;;;;;24.99;74.74;97199.91;623880;227;66671;-63
2023/07/15 02:42:37;;;;;;;;;;;;;;;24.98;74.24;97198.29;623897;227;65041;-63
2023/07/15 02:45:03;;;;;;;;;;;;;;;24.99;74.96;97193.70;623656;226;64144;-64
2023/07/15 02:47:32;;;;;;;;;;;;;;;24.99;74.91;97199.08;623844;227;64768;-63
2023/07/15 02:50:01;;;;;;;;;;;;;;;24.98;73.95;97192.12;623838;227;65152;-63
2023/07/15 02:52:28;;;;;;;;;;;;;;;24.97;74.23;97191.33;623872;227;65169;-63
2023/07/15 02:54:56;;;;;;;;;;;;;;;24.97;74.95;97195.91;623827;227;64616;-63
2023/07/15 02:57:23;;;;;;;;;;;;;;;24.97;75.29;97188.64;623884;227;65776;-63
2023/07/15 02:59:52;;;;;;;;;;;;;;;24.96;74.51;97192.42;623834;227;66931;-63
2023/07/15 03:02:20;;;;;;;;;;;;;;;24.96;73.95;97187.05;623884;227;64448;-63
2023/07/15 03:04:48;;;;;;;;;;;;;;;24.96;74.26;97184.36;623868;227;64901;-63
2023/07/15 03:07:16;;;;;;;;;;;;;;;24.97;74.67;97187.84;623841;227;67049;-63
2023/07/15 03:09:44;;;;;;;;;;;;;;;24.96;74.79;97183.53;623875;227;67196;-63
2023/07/15 03:12:12;;;;;;;;;;;;;;;24.96;75.75;97191.61;623798;227;62917;-63
2023/07/15 03:14:42;;;;;;;;;;;;;;;24.96;75.35;97181.67;625162;227;64897;-63
2023/07/15 03:17:10;;;;;;;;;;;;;;;24.95;74.84;97182.75;625262;227;65494;-63
2023/07/15 03:19:38;;;;;;;;;;;;;;;24.94;74.77;97181.16;625220;227;65050;-63
2023/07/15 03:22:06;;;;;;;;;;;;;;;24.94;74.43;97181.16;625265;227;64819;-63
2023/07/15 03:24:35;;;;;;;;;;;;;;;24.94;74.46;97178.47;625232;227;65868;-63
2023/07/15 03:27:03;;;;;;;;;;;;;;;24.94;74.65;97186.53;625202;227;62833;-63
2023/07/15 03:29:30;;;;;;;;;;;;;;;24.92;74.81;97175.27;625245;227;67728;-63
2023/07/15 03:31:58;;;;;;;;;;;;;;;24.92;74.86;97183.34;625259;227;66739;-63
2023/07/15 03:34:25;;;;;;;;;;;;;;;24.93;74.97;97184.12;625237;227;65131;-63
2023/07/15 03:36:53;;;;;;;;;;;;;;;24.92;74.90;97186.02;625262;227;64979;-63
2023/07/15 03:39:23;;;;;;;;;;;;;;;24.93;74.89;97186.81;625243;227;67400;-64
2023/07/15 03:41:50;;;;;;;;;;;;;;;24.91;74.74;97181.75;625277;227;65761;-65
2023/07/15 03:44:17;;;;;;;;;;;;;;;24.92;74.55;97180.64;625293;227;65051;-63
2023/07/15 03:46:45;;;;;;;;;;;;;;;24.93;75.03;97190.30;625269;227;64914;-63
2023/07/15 03:49:13;;;;;;;;;;;;;;;24.93;75.10;97190.30;625253;227;62881;-63
2023/07/15 03:51:40;;;;;;;;;;;;;;;24.94;75.09;97191.13;625264;227;67171;-61
2023/07/15 03:54:08;;;;;;;;;;;;;;;24.92;74.87;97187.92;625236;227;66997;-61
2023/07/15 03:56:35;;;;;;;;;;;;;;;24.92;75.18;97190.61;625298;227;65037;-61
2023/07/15 03:59:04;;;;;;;;;;;;;;;24.92;75.22;97194.09;625251;227;66902;-63
2023/07/15 04:01:31;;;;;;;;;;;;;;;24.92;75.69;97199.46;625294;227;65002;-61
2023/07/15 04:04:01;;;;;;;;;;;;;;;24.91;75.06;97200.56;625240;227;65003;-61
2023/07/15 04:06:28;;;;;;;;;;;;;;;24.92;75.32;97204.84;625242;227;65319;-61
2023/07/15 04:08:55;;;;;;;;;;;;;;;24.91;75.63;97208.62;625270;227;64970;-63
2023/07/15 04:11:23;;;;;;;;;;;;;;;24.90;74.97;97207.02;625091;227;65020;-65
2023/07/15 04:13:50;;;;;;;;;;;;;;;24.91;75.17;97214.01;624412;226;67240;-63
2023/07/15 04:16:17;;;;;;;;;;;;;;;24.91;75.23;97219.38;622079;224;67033;-63
2023/07/15 04:18:45;;;;;;;;;;;;;;;24.91;75.18;97230.14;623860;227;65054;-63
2023/07/15 04:21:12;;;;;;;;;;;;;;;24.91;75.47;97230.14;623675;224;65047;-63
2023/07/15 04:23:40;;;;;;;;;;;;;;;24.91;75.50;97237.38;623873;227;66833;-63
2023/07/15 04:26:07;;;;;;;;;;;;;;;24.91;75.67;97235.52;623902;227;64983;-63
2023/07/15 04:28:35;;;;;;;;;;;;;;;24.90;75.33;97244.65;623827;227;67206;-64
2023/07/15 04:31:02;;;;;;;;;;;;;;;24.90;75.57;97241.96;623860;227;67057;-63
2023/07/15 04:33:30;;;;;;;;;;;;;;;24.90;75.40;97241.96;623861;227;65008;-63
2023/07/15 04:35:57;;;;;;;;;;;;;;;24.90;75.41;97250.03;623805;227;67280;-63
2023/07/15 04:38:25;;;;;;;;;;;;;;;24.90;75.40;97250.03;623817;227;67034;-63
2023/07/15 04:40:52;;;;;;;;;;;;;;;24.91;75.67;97250.82;623886;227;62723;-63
2023/07/15 04:43:22;;;;;;;;;;;;;;;24.91;75.60;97256.20;623832;227;64977;-63
2023/07/15 04:45:49;;;;;;;;;;;;;;;24.90;75.68;97241.17;623864;227;66654;-63
2023/07/15 04:48:17;;;;;;;;;;;;;;;24.91;76.02;97248.95;623863;227;64995;-63
2023/07/15 04:50:46;;;;;;;;;;;;;;;24.90;76.14;97244.65;623804;227;67221;-64
2023/07/15 04:53:13;;;;;;;;;;;;;;;24.89;75.76;97247.64;623849;227;67434;-64
2023/07/15 04:55:42;;;;;;;;;;;;;;;24.88;75.24;97246.85;623857;227;64833;-64
2023/07/15 04:58:11;;;;;;;;;;;;;;;24.89;75.70;97236.89;623835;227;67017;-63
2023/07/15 05:00:39;;;;;;;;;;;;;;;24.88;75.79;97244.16;623847;227;67005;-63
2023/07/15 05:03:07;;;;;;;;;;;;;;;24.87;75.19;97245.23;623846;227;65061;-63
2023/07/15 05:05:35;;;;;;;;;;;;;;;24.88;75.63;97246.85;623857;227;67268;-64
2023/07/15 05:08:16;;;;;;;;;;;;;;;24.89;75.82;97234.20;623840;227;67068;-64
2023/07/15 05:10:44;;;;;;;;;;;;;;;24.87;75.57;97239.86;623861;227;65157;-64
2023/07/15 05:13:12;;;;;;;;;;;;;;;24.88;75.68;97238.78;624258;227;66931;-65
2023/07/15 05:15:39;;;;;;;;;;;;;;;24.87;75.56;97237.17;625267;227;66994;-63
2023/07/15 05:18:07;;;;;;;;;;;;;;;24.86;75.29;97227.52;625226;227;65026;-63
2023/07/15 05:20:35;;;;;;;;;;;;;;;24.87;75.23;97234.48;625279;227;67457;-64
2023/07/15 05:23:03;;;;;;;;;;;;;;;24.87;75.40;97237.17;625238;227;64911;-64
2023/07/15 05:25:30;;;;;;;;;;;;;;;24.86;74.91;97237.48;625255;227;62807;-64
2023/07/15 05:27:59;;;;;;;;;;;;;;;24.86;74.89;97232.89;625240;227;67383;-65
2023/07/15 05:30:27;;;;;;;;;;;;;;;24.86;74.87;97232.89;625257;227;64555;-64
2023/07/15 05:32:54;;;;;;;;;;;;;;;24.87;74.38;97239.06;625276;227;65912;-64
2023/07/15 05:35:22;;;;;;;;;;;;;;;24.86;74.88;97227.52;625211;227;67237;-65
2023/07/15 05:37:49;;;;;;;;;;;;;;;24.86;74.90;97232.89;625251;227;66959;-63
2023/07/15 05:40:17;;;;;;;;;;;;;;;24.87;74.71;97234.48;625230;227;62683;-64
2023/07/15 05:42:44;;;;;;;;;;;;;;;24.87;75.03;97231.80;625224;227;67243;-63
2023/07/15 05:45:13;;;;;;;;;;;;;;;24.90;76.23;97238.48;625270;227;67071;-64
2023/07/15 05:47:41;;;;;;;;;;;;;;;24.90;76.25;97233.89;625181;227;63618;-62
2023/07/15 05:50:09;;;;;;;;;;;;;;;24.89;76.04;97244.95;625232;227;65152;-64
2023/07/15 05:52:36;;;;;;;;;;;;;;;24.89;75.75;97236.89;625222;227;67161;-65
2023/07/15 05:55:04;;;;;;;;;;;;;;;24.90;75.85;97238.48;625277;227;63811;-65
2023/07/15 05:57:32;;;;;;;;;;;;;;;24.87;74.77;97239.06;625260;227;67112;-64
2023/07/15 06:00:00;;;;;;;;;;;;;;;24.89;75.44;97236.89;625270;227;66770;-63
2023/07/15 06:02:29;;;;;;;;;;;;;;;24.88;75.08;97233.41;625044;226;43586;-63
2023/07/15 06:04:57;;;;;;;;;;;;;;;24.88;75.29;97240.66;625264;227;67077;-62
2023/07/15 06:07:24;;;;;;;;;;;;;;;24.88;73.55;97238.78;625205;227;67381;-62
2023/07/15 06:09:52;;;;;;;;;;;;;;;24.87;71.67;97225.63;625278;227;64983;-62
2023/07/15 06:12:20;;;;;;;;;;;;;;;24.87;73.36;97236.38;625208;226;67175;-63
2023/07/15 06:14:47;;;;;;;;;;;;;;;24.88;71.59;97235.27;623808;226;67064;-62
2023/07/15 06:17:14;;;;;;;;;;;;;;;24.89;70.96;97235.00;623837;227;65069;-63
2023/07/15 06:19:42;;;;;;;;;;;;;;;24.90;68.02;97236.59;623856;227;67590;-63
2023/07/15 06:22:09;;;;;;;;;;;;;;;24.93;67.66;97240.58;623847;227;67050;-63
2023/07/15 06:24:37;;;;;;;;;;;;;;;24.95;67.54;97241.89;623869;227;64960;-62
2023/07/15 06:27:05;;;;;;;;;;;;;;;24.95;66.91;97236.52;623809;227;64759;-63
2023/07/15 06:29:33;;;;;;;;;;;;;;;24.97;67.15;97236.23;623743;227;66987;-62
2023/07/15 06:32:00;;;;;;;;;;;;;;;24.98;66.65;97235.93;623794;227;65000;-62
2023/07/15 06:34:28;;;;;;;;;;;;;;;24.99;66.61;97234.86;623833;227;67436;-62
2023/07/15 06:36:55;;;;;;;;;;;;;;;25.00;66.09;97227.58;623813;227;66982;-62
2023/07/15 06:39:23;;;;;;;;;;;;;;;25.01;65.69;97231.86;623813;227;62950;-62
2023/07/15 06:41:51;;;;;;;;;;;;;;;25.03;65.33;97235.06;623849;227;65099;-63
2023/07/15 06:44:18;;;;;;;;;;;;;;;25.03;65.27;97238.55;623787;227;67062;-64
2023/07/15 06:46:48;;;;;;;;;;;;;;;25.03;65.93;97243.92;623896;226;42574;-62
2023/07/15 06:49:15;;;;;;;;;;;;;;;25.05;65.51;97234.78;623888;227;66894;-62
2023/07/15 06:51:42;;;;;;;;;;;;;;;25.05;65.75;97240.16;623846;227;66923;-62
2023/07/15 06:54:10;;;;;;;;;;;;;;;25.06;64.77;97241.75;623847;227;65124;-62
2023/07/15 06:56:37;;;;;;;;;;;;;;;25.06;65.05;97242.55;623800;225;66902;-62
2023/07/15 06:59:05;;;;;;;;;;;;;;;25.06;65.12;97242.55;623876;227;66876;-62
2023/07/15 07:01:33;;;;;;;;;;;;;;;25.07;65.24;97240.65;623849;227;65052;-62
2023/07/15 07:04:00;;;;;;;;;;;;;;;25.05;65.49;97235.58;623830;227;66950;-63
2023/07/15 07:06:28;;;;;;;;;;;;;;;25.06;64.92;97239.86;623869;227;66617;-62
2023/07/15 07:08:56;;;;;;;;;;;;;;;25.06;65.38;97237.16;623824;227;63026;-62
2023/07/15 07:11:23;;;;;;;;;;;;;;;25.08;64.66;97236.89;623871;227;64719;-62
2023/07/15 07:13:50;;;;;;;;;;;;;;;25.07;64.60;97235.27;624749;227;64733;-63
2023/07/15 07:16:18;;;;;;;;;;;;;;;25.07;64.47;97233.38;625249;227;63020;-62
2023/07/15 07:18:46;;;;;;;;;;;;;;;25.08;64.06;97234.20;625284;227;67213;-62
2023/07/15 07:21:13;;;;;;;;;;;;;;;25.08;64.14;97234.20;625261;227;65362;-62
2023/07/15 07:23:42;;;;;;;;;;;;;;;25.09;64.50;97239.27;625248;227;64987;-63
2023/07/15 07:26:10;;;;;;;;;;;;;;;25.09;64.56;97233.09;625314;227;68000;-62
2023/07/15 07:28:41;;;;;;;;;;;;;;;25.09;64.48;97231.20;625252;227;67069;-62
2023/07/15 07:31:09;;;;;;;;;;;;;;;25.11;64.32;97237.09;625276;227;64868;-62
2023/07/15 07:33:37;;;;;;;;;;;;;;;25.12;64.14;97227.92;625247;227;67257;-63
2023/07/15 07:36:05;;;;;;;;;;;;;;;25.12;64.50;97225.23;625202;227;64912;-62
2023/07/15 07:38:34;;;;;;;;;;;;;;;25.12;64.71;97225.23;625237;226;65063;-62
2023/07/15 07:41:09;;;;;;;;;;;;;;;25.13;64.94;97223.37;625250;227;66869;-62
2023/07/15 07:43:37;;;;;;;;;;;;;;;25.14;64.93;97224.95;625253;227;65114;-63
2023/07/15 07:46:05;;;;;;;;;;;;;;;25.14;65.19;97230.33;625239;227;62888;-62
2023/07/15 07:48:33;;;;;;;;;;;;;;;25.13;65.10;97226.05;625251;227;65322;-62
2023/07/15 07:51:01;;;;;;;;;;;;;;;25.13;65.09;97224.16;625302;227;64808;-64
2023/07/15 07:53:29;;;;;;;;;;;;;;;25.13;65.07;97232.23;625268;227;71359;-62
2023/07/15 07:55:56;;;;;;;;;;;;;;;25.13;65.21;97226.84;625264;227;67163;-63
2023/07/15 07:58:24;;;;;;;;;;;;;;;25.13;65.24;97223.37;625263;227;66873;-62
2023/07/15 08:00:51;;;;;;;;;;;;;;;25.13;65.43;97224.16;625282;227;65041;-62
2023/07/15 08:03:19;;;;;;;;;;;;;;;25.13;65.34;97228.74;625228;227;64951;-63
2023/07/15 08:05:47;;;;;;;;;;;;;;;25.17;65.64;97229.77;625309;227;66826;-62
2023/07/15 08:08:15;;;;;;;;;;;;;;;25.14;65.50;97219.58;625254;227;62918;-62
2023/07/15 08:10:42;;;;;;;;;;;;;;;25.16;65.62;97223.59;625257;224;64924;-62
2023/07/15 08:13:10;;;;;;;;;;;;;;;25.18;65.87;97223.29;624757;226;64988;-62
2023/07/15 08:15:38;;;;;;;;;;;;;;;25.19;65.96;97220.32;623821;227;62960;-62
2023/07/15 08:18:06;;;;;;;;;;;;;;;25.18;66.26;97220.60;622931;224;67249;-62
2023/07/15 08:20:34;;;;;;;;;;;;;;;25.18;65.95;97215.22;620992;224;67120;-62
2023/07/15 08:23:01;;;;;;;;;;;;;;;25.18;65.87;97217.91;623836;227;65049;-62
2023/07/15 08:25:29;;;;;;;;;;;;;;;25.19;65.85;97219.53;623825;227;67265;-62
2023/07/15 08:27:57;;;;;;;;;;;;;;;25.21;65.82;97220.05;623837;227;66797;-62
2023/07/15 08:30:24;;;;;;;;;;;;;;;25.19;65.98;97212.25;623850;227;64993;-62
2023/07/15 08:32:52;;;;;;;;;;;;;;;25.18;65.59;97216.05;623856;227;67161;-62
2023/07/15 08:35:19;;;;;;;;;;;;;;;25.18;65.75;97207.98;623813;224;65246;-62
2023/07/15 08:37:47;;;;;;;;;;;;;;;25.20;65.84;97202.29;623861;227;65097;-62
2023/07/15 08:40:14;;;;;;;;;;;;;;;25.21;66.39;97207.39;623820;227;67195;-62
2023/07/15 08:42:42;;;;;;;;;;;;;;;25.21;66.03;97206.59;623888;227;67039;-62
2023/07/15 08:45:10;;;;;;;;;;;;;;;25.22;66.25;97202.80;623852;227;65007;-63
2023/07/15 08:47:40;;;;;;;;;;;;;;;25.24;66.51;97211.38;623848;227;67088;-62
2023/07/15 08:50:09;;;;;;;;;;;;;;;25.23;66.57;97205.18;623868;227;67119;-62
2023/07/15 08:52:38;;;;;;;;;;;;;;;25.23;66.63;97204.39;623863;227;65054;-63
2023/07/15 08:55:07;;;;;;;;;;;;;;;25.26;66.79;97211.86;623866;227;65783;-62
2023/07/15 08:57:35;;;;;;;;;;;;;;;25.26;67.14;97209.17;623856;227;67017;-63
2023/07/15 09:00:12;;;;;;;;;;;;;;;25.29;67.18;97208.61;623818;227;65007;-62
2023/07/15 09:02:39;;;;;;;;;;;;;;;25.27;66.90;97210.79;623776;226;48631;-62
2023/07/15 09:05:07;;;;;;;;;;;;;;;25.27;66.81;97210.00;623852;227;67191;-62
2023/07/15 09:07:51;;;;;;;;;;;;;;;25.28;67.03;97212.37;623862;227;64987;-62
2023/07/15 09:10:19;;;;;;;;;;;;;;;25.28;66.81;97223.14;623877;227;65114;-62
2023/07/15 09:12:54;;;;;;;;;;;;;;;25.27;66.90;97212.69;622313;224;67066;-62
2023/07/15 09:15:22;;;;;;;;;;;;;;;25.27;66.94;97213.48;625022;227;62994;-62
2023/07/15 09:17:54;;;;;;;;;;;;;;;25.27;67.20;97213.48;625260;227;64945;-62
2023/07/15 09:20:22;;;;;;;;;;;;;;;25.31;67.26;97211.78;624294;226;67043;-62
2023/07/15 09:22:56;;;;;;;;;;;;;;;25.32;67.01;97218.78;624435;227;65114;-60
2023/07/15 09:25:24;;;;;;;;;;;;;;;25.29;66.93;97213.99;624375;227;65129;-60
2023/07/15 09:27:53;;;;;;;;;;;;;;;25.28;66.74;97214.27;624358;227;64857;-60
2023/07/15 09:30:20;;;;;;;;;;;;;;;25.28;66.74;97214.27;624363;227;65154;-60
2023/07/15 09:32:48;;;;;;;;;;;;;;;25.32;67.14;97213.41;624320;227;68624;-61
2023/07/15 09:35:15;;;;;;;;;;;;;;;25.34;66.97;97210.40;624885;227;66985;-60
2023/07/15 09:37:44;;;;;;;;;;;;;;;25.34;66.92;97221.16;625264;224;62747;-60
2023/07/15 09:40:13;;;;;;;;;;;;;;;25.35;67.36;97214.70;625209;226;65037;-61
2023/07/15 09:42:50;;;;;;;;;;;;;;;25.34;67.08;97213.09;625267;227;66744;-60
2023/07/15 09:45:36;;;;;;;;;;;;;;;25.33;67.07;97208.81;625206;227;65121;-60
2023/07/15 09:48:08;;;;;;;;;;;;;;;25.33;67.13;97208.81;625237;227;64797;-60
2023/07/15 09:50:36;;;;;;;;;;;;;;;25.33;67.09;97209.61;625176;227;67376;-60
2023/07/15 09:53:04;;;;;;;;;;;;;;;25.33;66.90;97203.44;625245;227;62903;-60
2023/07/15 09:55:36;;;;;;;;;;;;;;;25.33;66.86;97209.61;625241;227;65121;-60
2023/07/15 09:58:11;;;;;;;;;;;;;;;25.35;66.70;97210.12;625195;227;66705;-61
2023/07/15 10:00:40;;;;;;;;;;;;;;;25.36;66.58;97203.63;625226;227;62734;-59
2023/07/15 10:03:09;;;;;;;;;;;;;;;25.34;66.76;97202.33;625202;226;64993;-59
2023/07/15 10:05:37;;;;;;;;;;;;;;;25.33;66.45;97200.74;625211;227;67027;-59
2023/07/15 10:08:05;;;;;;;;;;;;;;;25.34;66.66;97208.50;625309;227;62965;-59
2023/07/15 10:10:33;;;;;;;;;;;;;;;25.36;66.12;97209.02;625214;227;67000;-59
2023/07/15 10:13:01;;;;;;;;;;;;;;;25.39;65.79;97208.42;624827;226;67122;-60
2023/07/15 10:15:29;;;;;;;;;;;;;;;25.37;65.62;97204.42;623783;227;65035;-59
2023/07/15 10:17:56;;;;;;;;;;;;;;;25.39;65.41;97202.25;623831;227;67413;-60
2023/07/15 10:20:25;;;;;;;;;;;;;;;25.40;64.92;97203.83;623868;227;64923;-60
2023/07/15 10:22:53;;;;;;;;;;;;;;;25.40;64.96;97204.66;623796;227;65235;-60
2023/07/15 10:25:20;;;;;;;;;;;;;;;25.40;64.56;97193.89;623820;227;67230;-59
2023/07/15 10:27:48;;;;;;;;;;;;;;;25.39;64.41;97197.66;623827;227;64911;-59
2023/07/15 10:30:19;;;;;;;;;;;;;;;25.39;64.42;97194.97;623773;227;62859;-59
2023/07/15 10:33:01;;;;;;;;;;;;;;;25.39;64.18;97188.80;623792;227;65007;-60
2023/07/15 10:35:29;;;;;;;;;;;;;;;25.38;64.44;97192.59;623798;227;64863;-60
2023/07/15 10:37:58;;;;;;;;;;;;;;;25.38;64.34;97187.21;623822;227;62950;-60
2023/07/15 10:40:43;;;;;;;;;;;;;;;25.41;64.67;97184.72;623722;226;64966;-60
2023/07/15 10:43:11;;;;;;;;;;;;;;;25.40;64.46;97193.89;623796;227;64777;-60
2023/07/15 10:45:45;;;;;;;;;;;;;;;25.38;64.60;97185.31;623796;227;63045;-60
2023/07/15 10:48:13;;;;;;;;;;;;;;;25.40;64.49;97182.31;623755;226;67073;-61
2023/07/15 10:50:40;;;;;;;;;;;;;;;25.41;64.22;97189.30;623794;227;67005;-59
2023/07/15 10:53:26;;;;;;;;;;;;;;;25.44;64.21;97186.02;623815;227;63012;-59
2023/07/15 10:55:55;;;;;;;;;;;;;;;25.42;64.27;97177.44;623825;227;67427;-60
2023/07/15 10:58:23;;;;;;;;;;;;;;;25.42;64.35;97186.30;623764;226;66640;-60
2023/07/15 11:00:50;;;;;;;;;;;;;;;25.42;64.25;97183.61;623836;227;65031;-60
2023/07/15 11:03:20;;;;;;;;;;;;;;;25.42;64.27;97186.30;623832;227;66921;-60
2023/07/15 11:05:48;;;;;;;;;;;;;;;25.41;64.37;97176.65;623867;227;67147;-60
2023/07/15 11:08:16;;;;;;;;;;;;;;;25.43;64.36;97181.75;623827;227;65378;-60
2023/07/15 11:10:44;;;;;;;;;;;;;;;25.43;64.59;97176.36;623815;227;64689;-60
2023/07/15 11:13:14;;;;;;;;;;;;;;;25.44;64.35;97177.95;623804;227;64610;-60
2023/07/15 11:15:42;;;;;;;;;;;;;;;25.45;64.50;97179.53;623872;226;65152;-60
2023/07/15 11:18:19;;;;;;;;;;;;;;;25.42;64.31;97175.55;623923;227;66960;-60
2023/07/15 11:20:47;;;;;;;;;;;;;;;25.44;64.21;97178.74;623830;227;67026;-60
2023/07/15 11:23:15;;;;;;;;;;;;;;;25.45;63.76;97177.67;623897;227;65019;-60
2023/07/15 11:25:42;;;;;;;;;;;;;;;25.45;63.70;97174.16;623854;227;66993;-60
2023/07/15 11:28:11;;;;;;;;;;;;;;;25.43;63.70;97171.78;623867;227;67104;-60
2023/07/15 11:30:39;;;;;;;;;;;;;;;25.45;63.58;97169.59;623887;227;64978;-60
2023/07/15 11:33:07;;;;;;;;;;;;;;;25.45;63.77;97169.59;623892;227;67260;-60
2023/07/15 11:35:35;;;;;;;;;;;;;;;25.46;63.78;97171.18;623870;227;66826;-60
2023/07/15 11:38:13;;;;;;;;;;;;;;;25.45;63.70;97172.29;623865;227;65106;-60
2023/07/15 11:40:51;;;;;;;;;;;;;;;25.45;63.82;97166.91;623883;227;67182;-59
2023/07/15 11:43:19;;;;;;;;;;;;;;;25.44;64.05;97164.50;623879;227;67014;-60
2023/07/15 11:45:50;;;;;;;;;;;;;;;25.46;63.97;97159.63;623901;227;65068;-60
2023/07/15 11:48:26;;;;;;;;;;;;;;;25.47;64.09;97158.52;623898;227;67166;-59
2023/07/15 11:50:57;;;;;;;;;;;;;;;25.46;63.98;97160.42;623697;226;64379;-60
2023/07/15 11:53:25;;;;;;;;;;;;;;;25.46;63.96;97165.80;623831;227;65233;-61
2023/07/15 11:55:52;;;;;;;;;;;;;;;25.47;64.11;97163.91;623842;227;66047;-60
2023/07/15 11:58:21;;;;;;;;;;;;;;;25.47;64.30;97162.00;623871;227;66997;-60
2023/07/15 12:00:49;;;;;;;;;;;;;;;25.49;64.10;97163.63;620796;227;65018;-60
2023/07/15 12:03:18;;;;;;;;;;;;;;;25.49;63.87;97161.72;623925;227;67243;-60
2023/07/15 12:05:46;;;;;;;;;;;;;;;25.49;63.74;97163.63;623945;227;67185;-60
2023/07/15 12:08:14;;;;;;;;;;;;;;;25.50;63.59;97162.52;623904;227;63015;-61
2023/07/15 12:10:51;;;;;;;;;;;;;;;25.49;63.50;97158.23;623889;227;67050;-60
2023/07/15 12:13:18;;;;;;;;;;;;;;;25.49;63.54;97153.65;623400;227;66843;-60
2023/07/15 12:15:46;;;;;;;;;;;;;;;25.47;63.82;97150.45;622559;228;62807;-60
2023/07/15 12:18:13;;;;;;;;;;;;;;;25.46;63.91;97146.97;622561;228;66967;-60
2023/07/15 12:20:40;;;;;;;;;;;;;;;25.46;63.78;97152.34;622520;228;67445;-60
2023/07/15 12:23:09;;;;;;;;;;;;;;;25.45;63.96;97144.56;622555;228;63027;-60
2023/07/15 12:25:36;;;;;;;;;;;;;;;25.47;63.85;97145.86;622594;228;64987;-60
2023/07/15 12:28:03;;;;;;;;;;;;;;;25.49;64.00;97142.09;622576;228;64913;-61
2023/07/15 12:30:31;;;;;;;;;;;;;;;25.49;63.83;97147.47;622532;228;62914;-60
2023/07/15 12:32:58;;;;;;;;;;;;;;;25.47;63.93;97140.48;622555;228;64905;-61
2023/07/15 12:35:28;;;;;;;;;;;;;;;25.49;63.87;97147.47;622539;228;66826;-60
2023/07/15 12:37:55;;;;;;;;;;;;;;;25.49;63.98;97144.78;622572;228;63069;-60
2023/07/15 12:40:23;;;;;;;;;;;;;;;25.49;63.74;97145.58;622563;228;64206;-60
2023/07/15 12:42:50;;;;;;;;;;;;;;;25.49;63.80;97147.47;622570;228;64922;-60
2023/07/15 12:45:18;;;;;;;;;;;;;;;25.48;63.74;97141.27;622528;228;65030;-60
2023/07/15 12:47:46;;;;;;;;;;;;;;;25.46;63.87;97144.28;622567;228;67319;-60
2023/07/15 12:50:14;;;;;;;;;;;;;;;25.49;64.01;97137.50;622560;228;65018;-60
2023/07/15 12:52:41;;;;;;;;;;;;;;;25.50;63.95;97141.78;622602;228;65010;-60
2023/07/15 12:55:09;;;;;;;;;;;;;;;25.51;63.75;97134.50;622554;228;66906;-60